sensor_id;sensor_type;location;lat;lon;timestamp;pressure;altitude;pressure_sealevel;temperature;humidity
67345;BME280;54230;52.402;6.276;2023-08-06T00:00:00;100530.0;;;18.1;73.4
67345;BME280;54230;52.402;6.276;2023-08-06T00:05:00;100530.0;;;18.1;73.8
67345;BME280;54230;52.402;6.276;2023-08-06T00:10:00;100520.0;;;17.9;73.9
67345;BME280;54230;52.402;6.276;2023-08-06T00:15:00;100520.0;;;17.8;74.3
67345;BME280;54230;52.402;6.276;2023-08-06T00:20:00;100520.0;;;17.8;74.6
67345;BME280;54230;52.402;6.276;2023-08-06T00:25:00;100520.0;;;17.8;74.6
67345;BME280;54230;52.402;6.276;2023-08-06T00:30:00;100510.0;;;18.0;74.3
67345;BME280;54230;52.402;6.276;2023-08-06T00:35:00;100510.0;;;17.9;74.1
67345;BME280;54230;52.402;6.276;2023-08-06T00:40:00;100510.0;;;17.9;74.2
67345;BME280;54230;52.402;6.276;2023-08-06T00:45:00;100510.0;;;17.8;73.9
67345;BME280;54230;52.402;6.276;2023-08-06T00:50:00;100510.0;;;17.7;74.0
67345;BME280;54230;52.402;6.276;2023-08-06T00:55:00;100510.0;;;17.6;74.2
67345;BME280;54230;52.402;6.276;2023-08-06T01:00:00;100510.0;;;17.6;74.8
67345;BME280;54230;52.402;6.276;2023-08-06T01:05:00;100520.0;;;17.8;74.8
67345;BME280;54230;52.402;6.276;2023-08-06T01:10:15;100510.0;;;17.9;74.9
67345;BME280;54230;52.402;6.276;2023-08-06T01:15:04;100510.0;;;17.9;74.2
67345;BME280;54230;52.402;6.276;2023-08-06T01:20:00;100510.0;;;17.8;74.2
67345;BME280;54230;52.402;6.276;2023-08-06T01:25:00;100510.0;;;17.8;74.2
67345;BME280;54230;52.402;6.276;2023-08-06T01:30:03;100510.0;;;17.9;74.3
67345;BME280;54230;52.402;6.276;2023-08-06T01:35:02;100500.0;;;17.9;74.2
67345;BME280;54230;52.402;6.276;2023-08-06T01:40:00;100500.0;;;18.0;74.0
67345;BME280;54230;52.402;6.276;2023-08-06T01:45:00;100500.0;;;18.0;73.8
67345;BME280;54230;52.402;6.276;2023-08-06T01:50:00;100500.0;;;17.9;73.8
67345;BME280;54230;52.402;6.276;2023-08-06T01:55:00;100500.0;;;17.9;73.6
67345;BME280;54230;52.402;6.276;2023-08-06T02:00:00;100500.0;;;17.7;73.8
67345;BME280;54230;52.402;6.276;2023-08-06T02:05:00;100490.0;;;17.6;74.3
67345;BME280;54230;52.402;6.276;2023-08-06T02:10:00;100490.0;;;17.6;74.4
67345;BME280;54230;52.402;6.276;2023-08-06T02:15:00;100490.0;;;17.6;74.7
67345;BME280;54230;52.402;6.276;2023-08-06T02:20:00;100490.0;;;17.5;74.5
67345;BME280;54230;52.402;6.276;2023-08-06T02:25:00;100490.0;;;17.6;74.4
67345;BME280;54230;52.402;6.276;2023-08-06T02:30:00;100490.0;;;17.6;74.8
67345;BME280;54230;52.402;6.276;2023-08-06T02:35:00;100480.0;;;17.6;74.4
67345;BME280;54230;52.402;6.276;2023-08-06T02:40:00;100480.0;;;17.6;74.3
67345;BME280;54230;52.402;6.276;2023-08-06T02:45:00;100480.0;;;17.6;74.6
67345;BME280;54230;52.402;6.276;2023-08-06T02:50:00;100470.0;;;17.7;74.7
67345;BME280;54230;52.402;6.276;2023-08-06T02:55:00;100460.0;;;17.6;74.5
67345;BME280;54230;52.402;6.276;2023-08-06T03:00:00;100460.0;;;17.5;74.8
67345;BME280;54230;52.402;6.276;2023-08-06T03:05:00;100460.0;;;17.5;74.7
67345;BME280;54230;52.402;6.276;2023-08-06T03:10:00;100450.0;;;17.4;74.9
67345;BME280;54230;52.402;6.276;2023-08-06T03:15:00;100450.0;;;17.4;75.4
67345;BME280;54230;52.402;6.276;2023-08-06T03:20:00;100450.0;;;17.4;75.7
67345;BME280;54230;52.402;6.276;2023-08-06T03:25:00;100450.0;;;17.4;75.5
67345;BME280;54230;52.402;6.276;2023-08-06T03:30:00;100460.0;;;17.3;75.1
67345;BME280;54230;52.402;6.276;2023-08-06T03:35:00;100450.0;;;17.3;75.3
67345;BME280;54230;52.402;6.276;2023-08-06T03:40:00;100450.0;;;17.4;75.8
67345;BME280;54230;52.402;6.276;2023-08-06T03:45:00;100450.0;;;17.4;75.4
67345;BME280;54230;52.402;6.276;2023-08-06T03:50:00;100450.0;;;17.4;74.8
67345;BME280;54230;52.402;6.276;2023-08-06T03:55:00;100450.0;;;17.2;75.2
67345;BME280;54230;52.402;6.276;2023-08-06T04:00:00;100460.0;;;17.1;75.4
67345;BME280;54230;52.402;6.276;2023-08-06T04:05:00;100460.0;;;17.2;75.4
67345;BME280;54230;52.402;6.276;2023-08-06T04:10:02;100460.0;;;17.1;75.7
67345;BME280;54230;52.402;6.276;2023-08-06T04:15:00;100450.0;;;17.0;76.2
67345;BME280;54230;52.402;6.276;2023-08-06T04:20:00;100450.0;;;17.0;76.5
67345;BME280;54230;52.402;6.276;2023-08-06T04:25:00;100460.0;;;17.1;76.8
67345;BME280;54230;52.402;6.276;2023-08-06T04:30:00;100450.0;;;17.2;76.4
67345;BME280;54230;52.402;6.276;2023-08-06T04:35:00;100450.0;;;17.2;76.3
67345;BME280;54230;52.402;6.276;2023-08-06T04:40:00;100460.0;;;17.2;76.3
67345;BME280;54230;52.402;6.276;2023-08-06T04:45:01;100470.0;;;17.3;76.3
67345;BME280;54230;52.402;6.276;2023-08-06T04:50:00;100460.0;;;17.4;76.3
67345;BME280;54230;52.402;6.276;2023-08-06T04:55:00;100460.0;;;17.5;76.0
67345;BME280;54230;52.402;6.276;2023-08-06T05:00:00;100460.0;;;17.6;76.1
67345;BME280;54230;52.402;6.276;2023-08-06T05:05:00;100470.0;;;17.7;75.9
67345;BME280;54230;52.402;6.276;2023-08-06T05:10:00;100470.0;;;17.8;75.5
67345;BME280;54230;52.402;6.276;2023-08-06T05:15:00;100480.0;;;18.0;75.3
67345;BME280;54230;52.402;6.276;2023-08-06T05:20:00;100480.0;;;18.0;75.2
67345;BME280;54230;52.402;6.276;2023-08-06T05:25:00;100480.0;;;18.2;75.5
67345;BME280;54230;52.402;6.276;2023-08-06T05:30:00;100480.0;;;18.1;75.3
67345;BME280;54230;52.402;6.276;2023-08-06T05:35:00;100490.0;;;18.2;75.0
67345;BME280;54230;52.402;6.276;2023-08-06T05:40:00;100490.0;;;18.4;74.4
67345;BME280;54230;52.402;6.276;2023-08-06T05:45:00;100500.0;;;18.5;74.6
67345;BME280;54230;52.402;6.276;2023-08-06T05:50:00;100510.0;;;18.6;74.0
67345;BME280;54230;52.402;6.276;2023-08-06T05:55:00;100500.0;;;18.6;73.7
67345;BME280;54230;52.402;6.276;2023-08-06T06:00:01;100510.0;;;18.8;73.0
67345;BME280;54230;52.402;6.276;2023-08-06T06:05:00;100510.0;;;18.9;72.5
67345;BME280;54230;52.402;6.276;2023-08-06T06:10:00;100510.0;;;19.0;72.6
67345;BME280;54230;52.402;6.276;2023-08-06T06:15:00;100520.0;;;19.0;72.5
67345;BME280;54230;52.402;6.276;2023-08-06T06:20:00;100520.0;;;19.1;72.1
67345;BME280;54230;52.402;6.276;2023-08-06T06:25:00;100510.0;;;19.1;72.0
67345;BME280;54230;52.402;6.276;2023-08-06T06:30:00;100520.0;;;19.2;72.1
67345;BME280;54230;52.402;6.276;2023-08-06T06:35:00;100520.0;;;19.4;71.8
67345;BME280;54230;52.402;6.276;2023-08-06T06:40:00;100520.0;;;19.7;71.4
67345;BME280;54230;52.402;6.276;2023-08-06T06:45:00;100520.0;;;19.8;71.0
67345;BME280;54230;52.402;6.276;2023-08-06T06:50:00;100530.0;;;19.8;70.7
67345;BME280;54230;52.402;6.276;2023-08-06T06:55:00;100530.0;;;19.8;71.1
67345;BME280;54230;52.402;6.276;2023-08-06T07:00:00;100530.0;;;19.9;70.8
67345;BME280;54230;52.402;6.276;2023-08-06T07:05:00;100530.0;;;20.0;70.5
67345;BME280;54230;52.402;6.276;2023-08-06T07:10:01;100540.0;;;20.0;70.9
67345;BME280;54230;52.402;6.276;2023-08-06T07:15:00;100540.0;;;20.2;69.8
67345;BME280;54230;52.402;6.276;2023-08-06T07:20:00;100540.0;;;20.3;69.1
67345;BME280;54230;52.402;6.276;2023-08-06T07:25:00;100540.0;;;20.2;69.3
67345;BME280;54230;52.402;6.276;2023-08-06T07:30:00;100540.0;;;20.2;69.7
67345;BME280;54230;52.402;6.276;2023-08-06T07:35:00;100550.0;;;20.3;69.0
67345;BME280;54230;52.402;6.276;2023-08-06T07:40:00;100550.0;;;20.5;69.4
67345;BME280;54230;52.402;6.276;2023-08-06T07:45:02;100550.0;;;20.9;68.3
67345;BME280;54230;52.402;6.276;2023-08-06T07:50:00;100550.0;;;20.8;67.8
67345;BME280;54230;52.402;6.276;2023-08-06T07:55:00;100550.0;;;20.9;68.0
67345;BME280;54230;52.402;6.276;2023-08-06T08:00:01;100560.0;;;20.9;67.0
67345;BME280;54230;52.402;6.276;2023-08-06T08:05:00;100550.0;;;20.8;67.4
67345;BME280;54230;52.402;6.276;2023-08-06T08:10:00;100550.0;;;21.0;67.5
67345;BME280;54230;52.402;6.276;2023-08-06T08:15:00;100560.0;;;21.1;66.4
67345;BME280;54230;52.402;6.276;2023-08-06T08:20:00;100560.0;;;21.0;67.2
67345;BME280;54230;52.402;6.276;2023-08-06T08:25:00;100560.0;;;21.0;66.4
67345;BME280;54230;52.402;6.276;2023-08-06T08:30:00;100560.0;;;21.1;66.4
67345;BME280;54230;52.402;6.276;2023-08-06T08:35:00;100560.0;;;21.2;66.0
67345;BME280;54230;52.402;6.276;2023-08-06T08:40:00;100560.0;;;21.5;66.2
67345;BME280;54230;52.402;6.276;2023-08-06T08:45:00;100570.0;;;21.5;65.2
67345;BME280;54230;52.402;6.276;2023-08-06T08:50:01;100560.0;;;21.3;65.2
67345;BME280;54230;52.402;6.276;2023-08-06T08:55:01;100570.0;;;21.2;65.5
67345;BME280;54230;52.402;6.276;2023-08-06T09:00:00;100570.0;;;21.8;64.2
67345;BME280;54230;52.402;6.276;2023-08-06T09:05:01;100570.0;;;21.8;63.5
67345;BME280;54230;52.402;6.276;2023-08-06T09:10:02;100580.0;;;21.6;63.8
67345;BME280;54230;52.402;6.276;2023-08-06T09:15:00;100580.0;;;21.6;63.4
67345;BME280;54230;52.402;6.276;2023-08-06T09:20:09;100580.0;;;21.7;63.1
67345;BME280;54230;52.402;6.276;2023-08-06T09:25:00;100580.0;;;22.0;63.1
67345;BME280;54230;52.402;6.276;2023-08-06T09:30:00;100590.0;;;22.1;62.4
67345;BME280;54230;52.402;6.276;2023-08-06T09:35:00;100590.0;;;22.1;62.2
67345;BME280;54230;52.402;6.276;2023-08-06T09:40:00;100590.0;;;22.3;61.9
67345;BME280;54230;52.402;6.276;2023-08-06T09:45:05;100600.0;;;22.5;61.3
67345;BME280;54230;52.402;6.276;2023-08-06T09:50:00;100600.0;;;22.7;60.9
67345;BME280;54230;52.402;6.276;2023-08-06T09:55:01;100600.0;;;22.8;60.1
67345;BME280;54230;52.402;6.276;2023-08-06T10:00:00;100610.0;;;22.9;59.4
67345;BME280;54230;52.402;6.276;2023-08-06T10:05:01;100600.0;;;23.0;59.3
67345;BME280;54230;52.402;6.276;2023-08-06T10:10:01;100610.0;;;23.2;58.2
67345;BME280;54230;52.402;6.276;2023-08-06T10:15:03;100610.0;;;23.4;57.8
67345;BME280;54230;52.402;6.276;2023-08-06T10:20:00;100610.0;;;23.2;57.5
67345;BME280;54230;52.402;6.276;2023-08-06T10:25:01;100610.0;;;23.1;57.8
67345;BME280;54230;52.402;6.276;2023-08-06T10:35:00;100620.0;;;23.2;58.0
67345;BME280;54230;52.402;6.276;2023-08-06T10:40:01;100610.0;;;23.1;56.6
67345;BME280;54230;52.402;6.276;2023-08-06T10:45:11;100610.0;;;23.0;56.8
67345;BME280;54230;52.402;6.276;2023-08-06T10:50:00;100610.0;;;23.3;57.2
67345;BME280;54230;52.402;6.276;2023-08-06T10:55:00;100610.0;;;23.4;56.3
67345;BME280;54230;52.402;6.276;2023-08-06T11:00:00;100600.0;;;23.8;56.6
67345;BME280;54230;52.402;6.276;2023-08-06T11:05:05;100600.0;;;24.1;55.9
67345;BME280;54230;52.402;6.276;2023-08-06T11:10:02;100600.0;;;24.5;53.4
67345;BME280;54230;52.402;6.276;2023-08-06T11:15:01;100590.0;;;24.6;52.1
67345;BME280;54230;52.402;6.276;2023-08-06T11:20:01;100590.0;;;24.8;52.2
67345;BME280;54230;52.402;6.276;2023-08-06T11:25:00;100600.0;;;25.3;51.6
67345;BME280;54230;52.402;6.276;2023-08-06T11:30:00;100590.0;;;25.3;51.3
67345;BME280;54230;52.402;6.276;2023-08-06T11:35:09;100600.0;;;25.2;50.3
67345;BME280;54230;52.402;6.276;2023-08-06T11:40:00;100590.0;;;25.0;50.7
67345;BME280;54230;52.402;6.276;2023-08-06T11:45:02;100590.0;;;24.9;51.2
67345;BME280;54230;52.402;6.276;2023-08-06T11:50:00;100590.0;;;25.1;51.4
67345;BME280;54230;52.402;6.276;2023-08-06T11:55:01;100590.0;;;25.4;50.8
67345;BME280;54230;52.402;6.276;2023-08-06T12:00:02;100590.0;;;25.5;51.1
67345;BME280;54230;52.402;6.276;2023-08-06T12:05:01;100600.0;;;25.5;49.4
67345;BME280;54230;52.402;6.276;2023-08-06T12:10:00;100590.0;;;25.5;49.8
67345;BME280;54230;52.402;6.276;2023-08-06T12:15:01;100600.0;;;25.5;49.0
67345;BME280;54230;52.402;6.276;2023-08-06T12:20:00;100600.0;;;25.6;48.6
67345;BME280;54230;52.402;6.276;2023-08-06T12:25:01;100600.0;;;25.5;49.0
67345;BME280;54230;52.402;6.276;2023-08-06T12:30:00;100600.0;;;25.7;48.3
67345;BME280;54230;52.402;6.276;2023-08-06T12:35:00;100600.0;;;25.7;48.0
67345;BME280;54230;52.402;6.276;2023-08-06T12:40:00;100600.0;;;25.3;49.2
67345;BME280;54230;52.402;6.276;2023-08-06T12:45:00;100600.0;;;25.1;49.1
67345;BME280;54230;52.402;6.276;2023-08-06T12:50:00;100600.0;;;25.0;50.1
67345;BME280;54230;52.402;6.276;2023-08-06T12:55:00;100600.0;;;24.8;51.8
67345;BME280;54230;52.402;6.276;2023-08-06T13:00:00;100600.0;;;24.5;51.4
67345;BME280;54230;52.402;6.276;2023-08-06T13:05:00;100610.0;;;24.4;52.3
67345;BME280;54230;52.402;6.276;2023-08-06T13:10:00;100610.0;;;24.2;53.0
67345;BME280;54230;52.402;6.276;2023-08-06T13:15:00;100630.0;;;24.1;53.8
67345;BME280;54230;52.402;6.276;2023-08-06T13:20:00;100630.0;;;24.1;56.4
67345;BME280;54230;52.402;6.276;2023-08-06T13:25:00;100630.0;;;23.3;62.3
67345;BME280;54230;52.402;6.276;2023-08-06T13:30:00;100640.0;;;22.9;64.7
67345;BME280;54230;52.402;6.276;2023-08-06T13:35:00;100650.0;;;22.5;65.9
67345;BME280;54230;52.402;6.276;2023-08-06T13:40:00;100670.0;;;21.9;67.3
67345;BME280;54230;52.402;6.276;2023-08-06T13:45:01;100660.0;;;21.5;68.4
67345;BME280;54230;52.402;6.276;2023-08-06T13:50:00;100660.0;;;21.1;69.6
67345;BME280;54230;52.402;6.276;2023-08-06T13:55:00;100670.0;;;20.9;70.4
67345;BME280;54230;52.402;6.276;2023-08-06T14:00:01;100710.0;;;20.6;70.0
67345;BME280;54230;52.402;6.276;2023-08-06T14:05:00;100680.0;;;20.4;69.6
67345;BME280;54230;52.402;6.276;2023-08-06T14:10:00;100700.0;;;20.2;69.8
67345;BME280;54230;52.402;6.276;2023-08-06T14:15:00;100720.0;;;19.8;70.9
67345;BME280;54230;52.402;6.276;2023-08-06T14:20:00;100720.0;;;19.6;72.6
67345;BME280;54230;52.402;6.276;2023-08-06T14:25:00;100730.0;;;19.7;73.1
67345;BME280;54230;52.402;6.276;2023-08-06T14:30:00;100730.0;;;19.7;73.0
67345;BME280;54230;52.402;6.276;2023-08-06T14:35:00;100730.0;;;19.9;73.2
67345;BME280;54230;52.402;6.276;2023-08-06T14:40:00;100740.0;;;20.0;73.2
67345;BME280;54230;52.402;6.276;2023-08-06T14:45:00;100740.0;;;20.1;73.4
67345;BME280;54230;52.402;6.276;2023-08-06T14:50:00;100740.0;;;19.9;73.6
67345;BME280;54230;52.402;6.276;2023-08-06T14:55:00;100750.0;;;19.5;75.0
67345;BME280;54230;52.402;6.276;2023-08-06T15:00:00;100760.0;;;18.6;78.3
67345;BME280;54230;52.402;6.276;2023-08-06T15:05:00;100770.0;;;18.5;80.4
67345;BME280;54230;52.402;6.276;2023-08-06T15:10:00;100780.0;;;18.2;81.1
67345;BME280;54230;52.402;6.276;2023-08-06T15:15:00;100810.0;;;18.0;82.1
67345;BME280;54230;52.402;6.276;2023-08-06T15:20:00;100820.0;;;18.1;82.9
67345;BME280;54230;52.402;6.276;2023-08-06T15:25:01;100820.0;;;18.3;82.4
67345;BME280;54230;52.402;6.276;2023-08-06T15:30:00;100830.0;;;18.2;82.8
67345;BME280;54230;52.402;6.276;2023-08-06T15:35:00;100840.0;;;18.1;83.0
67345;BME280;54230;52.402;6.276;2023-08-06T15:40:00;100850.0;;;18.1;83.5
67345;BME280;54230;52.402;6.276;2023-08-06T15:45:00;100850.0;;;18.0;84.0
67345;BME280;54230;52.402;6.276;2023-08-06T15:50:00;100860.0;;;17.9;83.9
67345;BME280;54230;52.402;6.276;2023-08-06T15:55:00;100860.0;;;17.9;83.7
67345;BME280;54230;52.402;6.276;2023-08-06T16:00:01;100870.0;;;17.6;84.0
67345;BME280;54230;52.402;6.276;2023-08-06T16:05:00;100880.0;;;17.6;85.0
67345;BME280;54230;52.402;6.276;2023-08-06T16:10:00;100880.0;;;17.6;85.4
67345;BME280;54230;52.402;6.276;2023-08-06T16:15:00;100880.0;;;17.4;85.1
67345;BME280;54230;52.402;6.276;2023-08-06T16:20:00;100890.0;;;17.7;85.3
67345;BME280;54230;52.402;6.276;2023-08-06T16:25:00;100890.0;;;17.9;85.1
67345;BME280;54230;52.402;6.276;2023-08-06T16:30:00;100900.0;;;18.0;85.1
67345;BME280;54230;52.402;6.276;2023-08-06T16:35:00;100910.0;;;18.1;85.0
67345;BME280;54230;52.402;6.276;2023-08-06T16:40:00;100920.0;;;18.0;84.9
67345;BME280;54230;52.402;6.276;2023-08-06T16:45:00;100930.0;;;18.0;84.7
67345;BME280;54230;52.402;6.276;2023-08-06T16:50:00;100940.0;;;17.8;84.6
67345;BME280;54230;52.402;6.276;2023-08-06T16:55:00;100940.0;;;17.8;84.7
67345;BME280;54230;52.402;6.276;2023-08-06T17:00:00;100940.0;;;17.8;84.5
67345;BME280;54230;52.402;6.276;2023-08-06T17:05:00;100940.0;;;17.8;84.4
67345;BME280;54230;52.402;6.276;2023-08-06T17:10:00;100940.0;;;17.9;84.6
67345;BME280;54230;52.402;6.276;2023-08-06T17:15:00;100950.0;;;17.9;84.5
67345;BME280;54230;52.402;6.276;2023-08-06T17:20:00;100950.0;;;17.8;84.4
67345;BME280;54230;52.402;6.276;2023-08-06T17:25:00;100950.0;;;17.9;84.4
67345;BME280;54230;52.402;6.276;2023-08-06T17:30:00;100960.0;;;17.9;83.9
67345;BME280;54230;52.402;6.276;2023-08-06T17:35:00;100970.0;;;17.7;83.6
67345;BME280;54230;52.402;6.276;2023-08-06T17:40:00;100970.0;;;17.7;83.4
67345;BME280;54230;52.402;6.276;2023-08-06T17:45:00;100970.0;;;17.7;83.3
67345;BME280;54230;52.402;6.276;2023-08-06T17:50:00;100970.0;;;17.7;82.7
67345;BME280;54230;52.402;6.276;2023-08-06T17:55:00;100980.0;;;17.6;82.2
67345;BME280;54230;52.402;6.276;2023-08-06T18:00:00;100980.0;;;17.8;82.0
67345;BME280;54230;52.402;6.276;2023-08-06T18:05:00;100970.0;;;17.9;81.7
67345;BME280;54230;52.402;6.276;2023-08-06T18:10:00;100980.0;;;18.0;81.6
67345;BME280;54230;52.402;6.276;2023-08-06T18:15:00;100980.0;;;18.0;81.3
67345;BME280;54230;52.402;6.276;2023-08-06T18:20:00;100990.0;;;17.9;80.6
67345;BME280;54230;52.402;6.276;2023-08-06T18:25:00;100990.0;;;17.9;80.0
67345;BME280;54230;52.402;6.276;2023-08-06T18:30:00;100980.0;;;17.7;80.0
67345;BME280;54230;52.402;6.276;2023-08-06T18:35:00;100990.0;;;17.5;80.0
67345;BME280;54230;52.402;6.276;2023-08-06T18:40:00;101000.0;;;17.4;80.0
67345;BME280;54230;52.402;6.276;2023-08-06T18:45:00;101000.0;;;17.3;80.0
67345;BME280;54230;52.402;6.276;2023-08-06T18:50:00;101000.0;;;17.3;80.3
67345;BME280;54230;52.402;6.276;2023-08-06T18:55:00;101000.0;;;17.0;80.7
67345;BME280;54230;52.402;6.276;2023-08-06T19:00:00;101000.0;;;17.0;80.6
67345;BME280;54230;52.402;6.276;2023-08-06T19:05:00;101000.0;;;17.0;81.0
67345;BME280;54230;52.402;6.276;2023-08-06T19:10:00;100990.0;;;17.0;81.3
67345;BME280;54230;52.402;6.276;2023-08-06T19:15:00;100990.0;;;17.0;81.1
67345;BME280;54230;52.402;6.276;2023-08-06T19:20:00;100990.0;;;17.0;81.0
67345;BME280;54230;52.402;6.276;2023-08-06T19:25:00;101000.0;;;16.8;80.9
67345;BME280;54230;52.402;6.276;2023-08-06T19:30:00;101000.0;;;16.8;81.4
67345;BME280;54230;52.402;6.276;2023-08-06T19:35:00;101000.0;;;16.8;81.2
67345;BME280;54230;52.402;6.276;2023-08-06T19:40:00;101000.0;;;16.6;81.1
67345;BME280;54230;52.402;6.276;2023-08-06T19:45:00;101000.0;;;16.5;81.4
67345;BME280;54230;52.402;6.276;2023-08-06T19:50:00;101000.0;;;16.5;81.9
67345;BME280;54230;52.402;6.276;2023-08-06T19:55:00;101000.0;;;16.5;82.2
67345;BME280;54230;52.402;6.276;2023-08-06T20:00:00;101000.0;;;16.5;82.2
67345;BME280;54230;52.402;6.276;2023-08-06T20:05:00;100990.0;;;16.6;82.1
67345;BME280;54230;52.402;6.276;2023-08-06T20:10:00;100990.0;;;16.7;82.2
67345;BME280;54230;52.402;6.276;2023-08-06T20:15:00;100990.0;;;16.7;82.2
67345;BME280;54230;52.402;6.276;2023-08-06T20:20:00;100990.0;;;16.8;82.1
67345;BME280;54230;52.402;6.276;2023-08-06T20:25:00;100990.0;;;16.8;82.2
67345;BME280;54230;52.402;6.276;2023-08-06T20:30:00;100980.0;;;16.9;82.0
67345;BME280;54230;52.402;6.276;2023-08-06T20:35:00;100980.0;;;16.9;82.0
67345;BME280;54230;52.402;6.276;2023-08-06T20:40:00;100980.0;;;16.9;81.8
67345;BME280;54230;52.402;6.276;2023-08-06T20:45:00;100980.0;;;16.9;82.0
67345;BME280;54230;52.402;6.276;2023-08-06T20:50:00;100980.0;;;16.9;82.0
67345;BME280;54230;52.402;6.276;2023-08-06T20:55:00;100980.0;;;17.0;81.8
67345;BME280;54230;52.402;6.276;2023-08-06T21:00:00;100980.0;;;17.1;81.5
67345;BME280;54230;52.402;6.276;2023-08-06T21:05:00;100980.0;;;17.2;81.3
67345;BME280;54230;52.402;6.276;2023-08-06T21:10:00;100970.0;;;17.2;81.0
67345;BME280;54230;52.402;6.276;2023-08-06T21:15:00;100970.0;;;17.3;80.8
67345;BME280;54230;52.402;6.276;2023-08-06T21:20:00;100970.0;;;17.4;80.6
67345;BME280;54230;52.402;6.276;2023-08-06T21:25:00;100970.0;;;17.5;80.4
67345;BME280;54230;52.402;6.276;2023-08-06T21:30:00;100980.0;;;17.5;80.1
67345;BME280;54230;52.402;6.276;2023-08-06T21:35:00;100990.0;;;17.2;81.1
67345;BME280;54230;52.402;6.276;2023-08-06T21:40:00;100990.0;;;17.2;81.6
67345;BME280;54230;52.402;6.276;2023-08-06T21:45:00;100990.0;;;17.2;81.4
67345;BME280;54230;52.402;6.276;2023-08-06T21:50:00;101000.0;;;17.1;81.5
67345;BME280;54230;52.402;6.276;2023-08-06T21:55:00;101010.0;;;17.0;81.7
67345;BME280;54230;52.402;6.276;2023-08-06T22:00:00;101010.0;;;16.9;81.8
67345;BME280;54230;52.402;6.276;2023-08-06T22:05:00;101010.0;;;16.8;81.9
67345;BME280;54230;52.402;6.276;2023-08-06T22:10:00;101020.0;;;16.9;82.1
67345;BME280;54230;52.402;6.276;2023-08-06T22:15:00;101020.0;;;16.9;82.3
67345;BME280;54230;52.402;6.276;2023-08-06T22:20:00;101030.0;;;17.0;82.4
67345;BME280;54230;52.402;6.276;2023-08-06T22:25:00;101020.0;;;17.0;82.1
67345;BME280;54230;52.402;6.276;2023-08-06T22:30:01;101020.0;;;17.0;82.3
67345;BME280;54230;52.402;6.276;2023-08-06T22:35:00;101020.0;;;17.1;82.3
67345;BME280;54230;52.402;6.276;2023-08-06T22:40:00;101030.0;;;17.0;82.5
67345;BME280;54230;52.402;6.276;2023-08-06T22:45:00;101030.0;;;17.0;82.7
67345;BME280;54230;52.402;6.276;2023-08-06T22:50:00;101040.0;;;17.1;82.8
67345;BME280;54230;52.402;6.276;2023-08-06T22:55:00;101040.0;;;17.1;82.7
67345;BME280;54230;52.402;6.276;2023-08-06T23:00:00;101050.0;;;17.2;82.7
67345;BME280;54230;52.402;6.276;2023-08-06T23:05:00;101050.0;;;17.1;82.8
67345;BME280;54230;52.402;6.276;2023-08-06T23:10:00;101050.0;;;17.1;82.9
67345;BME280;54230;52.402;6.276;2023-08-06T23:15:00;101060.0;;;17.1;82.8
67345;BME280;54230;52.402;6.276;2023-08-06T23:20:01;101060.0;;;17.0;82.8
67345;BME280;54230;52.402;6.276;2023-08-06T23:25:00;101070.0;;;16.9;82.8
67345;BME280;54230;52.402;6.276;2023-08-06T23:30:00;101060.0;;;16.8;82.9
67345;BME280;54230;52.402;6.276;2023-08-06T23:35:01;101060.0;;;16.4;83.3
67345;BME280;54230;52.402;6.276;2023-08-06T23:40:00;101060.0;;;16.2;84.8
67345;BME280;54230;52.402;6.276;2023-08-06T23:45:00;101070.0;;;16.3;84.9
67345;BME280;54230;52.402;6.276;2023-08-06T23:50:00;101060.0;;;16.3;85.1
67345;BME280;54230;52.402;6.276;2023-08-06T23:55:00;101070.0;;;16.2;85.5
